sensor_id;sensor_type;location;lat;lon;timestamp;P1;durP1;ratioP1;P2;durP2;ratioP2
27999;SDS011;15328;50.860;10.562;2024-02-26T00:03:12;3.25;;;1.17;;
27999;SDS011;15328;50.860;10.562;2024-02-26T00:08:13;2.67;;;1.05;;
27999;SDS011;15328;50.860;10.562;2024-02-26T00:13:13;9.60;;;2.08;;
27999;SDS011;15328;50.860;10.562;2024-02-26T00:18:14;13.88;;;3.45;;
27999;SDS011;15328;50.860;10.562;2024-02-26T00:23:15;3.33;;;1.40;;
27999;SDS011;15328;50.860;10.562;2024-02-26T00:28:15;1.80;;;0.90;;
27999;SDS011;15328;50.860;10.562;2024-02-26T00:33:16;2.38;;;1.30;;
27999;SDS011;15328;50.860;10.562;2024-02-26T00:38:17;1.55;;;0.90;;
27999;SDS011;15328;50.860;10.562;2024-02-26T00:43:17;2.00;;;0.93;;
27999;SDS011;15328;50.860;10.562;2024-02-26T00:48:18;1.98;;;0.85;;
27999;SDS011;15328;50.860;10.562;2024-02-26T00:53:18;1.63;;;0.90;;
27999;SDS011;15328;50.860;10.562;2024-02-26T00:58:18;1.50;;;0.90;;
27999;SDS011;15328;50.860;10.562;2024-02-26T01:03:19;2.13;;;1.00;;
27999;SDS011;15328;50.860;10.562;2024-02-26T01:08:19;2.10;;;0.80;;
27999;SDS011;15328;50.860;10.562;2024-02-26T01:13:20;1.67;;;0.80;;
27999;SDS011;15328;50.860;10.562;2024-02-26T01:18:20;3.40;;;0.80;;
27999;SDS011;15328;50.860;10.562;2024-02-26T01:23:20;1.30;;;0.70;;
27999;SDS011;15328;50.860;10.562;2024-02-26T01:28:21;1.50;;;0.82;;
27999;SDS011;15328;50.860;10.562;2024-02-26T01:33:21;1.38;;;0.80;;
27999;SDS011;15328;50.860;10.562;2024-02-26T01:38:21;2.13;;;0.80;;
27999;SDS011;15328;50.860;10.562;2024-02-26T01:43:22;2.25;;;1.00;;
27999;SDS011;15328;50.860;10.562;2024-02-26T01:48:22;2.35;;;1.10;;
27999;SDS011;15328;50.860;10.562;2024-02-26T01:53:23;2.97;;;0.80;;
27999;SDS011;15328;50.860;10.562;2024-02-26T01:58:24;1.17;;;0.80;;
27999;SDS011;15328;50.860;10.562;2024-02-26T02:03:24;1.52;;;0.73;;
27999;SDS011;15328;50.860;10.562;2024-02-26T02:08:25;1.05;;;0.68;;
27999;SDS011;15328;50.860;10.562;2024-02-26T02:13:27;1.27;;;0.80;;
27999;SDS011;15328;50.860;10.562;2024-02-26T02:18:27;2.03;;;0.68;;
27999;SDS011;15328;50.860;10.562;2024-02-26T02:23:27;1.48;;;0.70;;
27999;SDS011;15328;50.860;10.562;2024-02-26T02:28:28;0.93;;;0.60;;
27999;SDS011;15328;50.860;10.562;2024-02-26T02:33:28;0.45;;;0.40;;
27999;SDS011;15328;50.860;10.562;2024-02-26T02:38:29;1.30;;;0.40;;
27999;SDS011;15328;50.860;10.562;2024-02-26T02:43:30;1.25;;;0.60;;
27999;SDS011;15328;50.860;10.562;2024-02-26T02:48:30;1.45;;;0.40;;
27999;SDS011;15328;50.860;10.562;2024-02-26T02:53:31;1.88;;;0.60;;
27999;SDS011;15328;50.860;10.562;2024-02-26T02:58:31;1.53;;;0.70;;
27999;SDS011;15328;50.860;10.562;2024-02-26T03:03:32;1.02;;;0.47;;
27999;SDS011;15328;50.860;10.562;2024-02-26T03:08:32;1.23;;;0.55;;
27999;SDS011;15328;50.860;10.562;2024-02-26T03:13:32;1.20;;;0.68;;
27999;SDS011;15328;50.860;10.562;2024-02-26T03:18:33;1.38;;;0.73;;
27999;SDS011;15328;50.860;10.562;2024-02-26T03:23:33;2.60;;;1.10;;
27999;SDS011;15328;50.860;10.562;2024-02-26T03:28:36;2.17;;;0.90;;
27999;SDS011;15328;50.860;10.562;2024-02-26T03:33:36;1.88;;;1.15;;
27999;SDS011;15328;50.860;10.562;2024-02-26T03:38:37;1.70;;;1.07;;
27999;SDS011;15328;50.860;10.562;2024-02-26T03:43:37;2.17;;;1.10;;
27999;SDS011;15328;50.860;10.562;2024-02-26T03:48:37;1.80;;;1.10;;
27999;SDS011;15328;50.860;10.562;2024-02-26T03:53:38;2.00;;;1.20;;
27999;SDS011;15328;50.860;10.562;2024-02-26T03:58:38;2.57;;;1.40;;
27999;SDS011;15328;50.860;10.562;2024-02-26T04:03:39;2.30;;;1.10;;
27999;SDS011;15328;50.860;10.562;2024-02-26T04:08:39;2.10;;;1.30;;
27999;SDS011;15328;50.860;10.562;2024-02-26T04:13:40;1.52;;;0.75;;
27999;SDS011;15328;50.860;10.562;2024-02-26T04:18:40;1.35;;;0.95;;
27999;SDS011;15328;50.860;10.562;2024-02-26T04:23:40;1.60;;;1.02;;
27999;SDS011;15328;50.860;10.562;2024-02-26T04:34:37;1.45;;;1.17;;
27999;SDS011;15328;50.860;10.562;2024-02-26T04:39:37;1.65;;;1.20;;
27999;SDS011;15328;50.860;10.562;2024-02-26T04:44:37;2.40;;;1.10;;
27999;SDS011;15328;50.860;10.562;2024-02-26T04:49:38;2.03;;;0.90;;
27999;SDS011;15328;50.860;10.562;2024-02-26T04:54:38;2.28;;;1.08;;
27999;SDS011;15328;50.860;10.562;2024-02-26T04:59:38;1.37;;;0.93;;
27999;SDS011;15328;50.860;10.562;2024-02-26T05:04:40;1.83;;;1.17;;
27999;SDS011;15328;50.860;10.562;2024-02-26T05:09:41;1.58;;;1.00;;
27999;SDS011;15328;50.860;10.562;2024-02-26T05:14:42;1.58;;;1.08;;
27999;SDS011;15328;50.860;10.562;2024-02-26T05:19:42;2.65;;;1.05;;
27999;SDS011;15328;50.860;10.562;2024-02-26T05:24:43;1.85;;;1.20;;
27999;SDS011;15328;50.860;10.562;2024-02-26T05:29:43;1.70;;;1.17;;
27999;SDS011;15328;50.860;10.562;2024-02-26T05:34:43;1.83;;;1.30;;
27999;SDS011;15328;50.860;10.562;2024-02-26T05:39:44;1.83;;;1.20;;
27999;SDS011;15328;50.860;10.562;2024-02-26T05:44:44;2.05;;;1.23;;
27999;SDS011;15328;50.860;10.562;2024-02-26T05:49:44;3.05;;;1.80;;
27999;SDS011;15328;50.860;10.562;2024-02-26T05:54:44;3.63;;;1.43;;
27999;SDS011;15328;50.860;10.562;2024-02-26T05:59:45;2.72;;;1.60;;
27999;SDS011;15328;50.860;10.562;2024-02-26T06:04:45;2.67;;;1.60;;
27999;SDS011;15328;50.860;10.562;2024-02-26T06:09:47;2.65;;;1.48;;
27999;SDS011;15328;50.860;10.562;2024-02-26T06:14:48;2.63;;;1.63;;
27999;SDS011;15328;50.860;10.562;2024-02-26T06:19:48;2.65;;;1.63;;
27999;SDS011;15328;50.860;10.562;2024-02-26T06:24:49;3.17;;;1.60;;
27999;SDS011;15328;50.860;10.562;2024-02-26T06:29:49;2.60;;;1.60;;
27999;SDS011;15328;50.860;10.562;2024-02-26T06:34:49;2.80;;;1.58;;
27999;SDS011;15328;50.860;10.562;2024-02-26T06:39:50;2.47;;;1.35;;
27999;SDS011;15328;50.860;10.562;2024-02-26T06:44:52;4.50;;;2.83;;
27999;SDS011;15328;50.860;10.562;2024-02-26T06:49:52;4.35;;;2.97;;
27999;SDS011;15328;50.860;10.562;2024-02-26T06:54:52;4.70;;;3.00;;
27999;SDS011;15328;50.860;10.562;2024-02-26T06:59:53;9.80;;;4.85;;
27999;SDS011;15328;50.860;10.562;2024-02-26T07:04:53;14.88;;;6.38;;
27999;SDS011;15328;50.860;10.562;2024-02-26T07:09:54;11.48;;;5.20;;
27999;SDS011;15328;50.860;10.562;2024-02-26T07:14:55;7.25;;;4.10;;
27999;SDS011;15328;50.860;10.562;2024-02-26T07:19:55;7.17;;;3.53;;
27999;SDS011;15328;50.860;10.562;2024-02-26T07:24:55;5.57;;;2.95;;
27999;SDS011;15328;50.860;10.562;2024-02-26T07:29:56;5.93;;;3.88;;
27999;SDS011;15328;50.860;10.562;2024-02-26T07:34:56;5.30;;;3.17;;
27999;SDS011;15328;50.860;10.562;2024-02-26T07:39:56;4.70;;;2.95;;
27999;SDS011;15328;50.860;10.562;2024-02-26T07:44:57;5.28;;;2.80;;
27999;SDS011;15328;50.860;10.562;2024-02-26T07:49:57;7.30;;;4.22;;
27999;SDS011;15328;50.860;10.562;2024-02-26T07:54:57;8.50;;;4.68;;
27999;SDS011;15328;50.860;10.562;2024-02-26T07:59:58;9.70;;;4.50;;
27999;SDS011;15328;50.860;10.562;2024-02-26T08:04:58;9.30;;;5.25;;
27999;SDS011;15328;50.860;10.562;2024-02-26T08:09:59;11.83;;;6.27;;
27999;SDS011;15328;50.860;10.562;2024-02-26T08:14:59;10.67;;;6.00;;
27999;SDS011;15328;50.860;10.562;2024-02-26T08:20:00;11.32;;;6.70;;
27999;SDS011;15328;50.860;10.562;2024-02-26T08:25:00;11.18;;;6.97;;
27999;SDS011;15328;50.860;10.562;2024-02-26T08:30:05;12.93;;;7.10;;
27999;SDS011;15328;50.860;10.562;2024-02-26T08:35:06;9.98;;;5.82;;
27999;SDS011;15328;50.860;10.562;2024-02-26T08:40:06;10.57;;;6.30;;
27999;SDS011;15328;50.860;10.562;2024-02-26T08:45:07;11.27;;;6.43;;
27999;SDS011;15328;50.860;10.562;2024-02-26T08:50:08;10.77;;;6.13;;
27999;SDS011;15328;50.860;10.562;2024-02-26T08:55:10;11.88;;;6.28;;
27999;SDS011;15328;50.860;10.562;2024-02-26T09:00:10;11.95;;;6.78;;
27999;SDS011;15328;50.860;10.562;2024-02-26T09:05:11;11.75;;;6.65;;
27999;SDS011;15328;50.860;10.562;2024-02-26T09:10:11;9.88;;;6.07;;
27999;SDS011;15328;50.860;10.562;2024-02-26T09:15:12;11.38;;;6.55;;
27999;SDS011;15328;50.860;10.562;2024-02-26T09:20:12;8.48;;;5.72;;
27999;SDS011;15328;50.860;10.562;2024-02-26T09:25:15;7.97;;;5.50;;
27999;SDS011;15328;50.860;10.562;2024-02-26T09:30:15;8.98;;;5.00;;
27999;SDS011;15328;50.860;10.562;2024-02-26T09:35:16;8.70;;;5.73;;
27999;SDS011;15328;50.860;10.562;2024-02-26T09:40:16;10.30;;;6.07;;
27999;SDS011;15328;50.860;10.562;2024-02-26T09:45:21;10.45;;;6.43;;
27999;SDS011;15328;50.860;10.562;2024-02-26T09:50:22;11.77;;;6.43;;
27999;SDS011;15328;50.860;10.562;2024-02-26T09:55:23;10.43;;;6.43;;
27999;SDS011;15328;50.860;10.562;2024-02-26T10:00:23;10.68;;;6.70;;
27999;SDS011;15328;50.860;10.562;2024-02-26T10:05:28;10.43;;;6.80;;
27999;SDS011;15328;50.860;10.562;2024-02-26T10:10:29;12.82;;;7.53;;
27999;SDS011;15328;50.860;10.562;2024-02-26T10:15:31;14.65;;;8.18;;
27999;SDS011;15328;50.860;10.562;2024-02-26T10:20:32;13.17;;;7.87;;
27999;SDS011;15328;50.860;10.562;2024-02-26T10:25:33;11.93;;;7.57;;
27999;SDS011;15328;50.860;10.562;2024-02-26T10:30:36;11.43;;;7.27;;
27999;SDS011;15328;50.860;10.562;2024-02-26T10:35:36;10.75;;;7.55;;
27999;SDS011;15328;50.860;10.562;2024-02-26T10:40:40;11.35;;;7.30;;
27999;SDS011;15328;50.860;10.562;2024-02-26T10:45:40;14.30;;;8.50;;
27999;SDS011;15328;50.860;10.562;2024-02-26T10:50:42;11.82;;;7.63;;
27999;SDS011;15328;50.860;10.562;2024-02-26T10:55:45;11.80;;;7.82;;
27999;SDS011;15328;50.860;10.562;2024-02-26T11:00:49;13.65;;;8.77;;
27999;SDS011;15328;50.860;10.562;2024-02-26T11:05:51;14.10;;;8.48;;
27999;SDS011;15328;50.860;10.562;2024-02-26T11:10:54;11.98;;;8.23;;
27999;SDS011;15328;50.860;10.562;2024-02-26T11:15:55;12.80;;;7.78;;
27999;SDS011;15328;50.860;10.562;2024-02-26T11:20:57;12.20;;;8.02;;
27999;SDS011;15328;50.860;10.562;2024-02-26T11:25:59;15.20;;;10.15;;
27999;SDS011;15328;50.860;10.562;2024-02-26T11:31:01;16.30;;;9.95;;
27999;SDS011;15328;50.860;10.562;2024-02-26T11:36:11;16.02;;;10.25;;
27999;SDS011;15328;50.860;10.562;2024-02-26T11:41:11;16.40;;;10.50;;
27999;SDS011;15328;50.860;10.562;2024-02-26T11:46:28;15.87;;;9.83;;
27999;SDS011;15328;50.860;10.562;2024-02-26T11:51:33;18.27;;;11.35;;
27999;SDS011;15328;50.860;10.562;2024-02-26T11:56:34;19.90;;;12.38;;
27999;SDS011;15328;50.860;10.562;2024-02-26T12:01:44;18.08;;;11.70;;
27999;SDS011;15328;50.860;10.562;2024-02-26T12:07:05;18.10;;;11.80;;
27999;SDS011;15328;50.860;10.562;2024-02-26T12:12:07;19.15;;;12.43;;
27999;SDS011;15328;50.860;10.562;2024-02-26T12:17:18;20.00;;;12.55;;
27999;SDS011;15328;50.860;10.562;2024-02-26T12:22:20;20.27;;;12.82;;
27999;SDS011;15328;50.860;10.562;2024-02-26T12:27:20;21.08;;;12.68;;
27999;SDS011;15328;50.860;10.562;2024-02-26T12:32:21;20.85;;;12.73;;
27999;SDS011;15328;50.860;10.562;2024-02-26T12:37:22;17.67;;;11.77;;
27999;SDS011;15328;50.860;10.562;2024-02-26T12:42:22;18.65;;;12.02;;
27999;SDS011;15328;50.860;10.562;2024-02-26T12:47:23;18.63;;;11.57;;
27999;SDS011;15328;50.860;10.562;2024-02-26T12:52:23;18.58;;;11.18;;
27999;SDS011;15328;50.860;10.562;2024-02-26T12:57:23;19.33;;;11.27;;
27999;SDS011;15328;50.860;10.562;2024-02-26T13:02:24;21.70;;;13.15;;
27999;SDS011;15328;50.860;10.562;2024-02-26T13:07:25;21.88;;;14.02;;
27999;SDS011;15328;50.860;10.562;2024-02-26T13:12:26;24.07;;;14.40;;
27999;SDS011;15328;50.860;10.562;2024-02-26T13:17:26;30.08;;;17.65;;
27999;SDS011;15328;50.860;10.562;2024-02-26T13:22:28;23.35;;;15.50;;
27999;SDS011;15328;50.860;10.562;2024-02-26T13:27:30;30.33;;;18.05;;
27999;SDS011;15328;50.860;10.562;2024-02-26T13:32:34;31.67;;;19.50;;
27999;SDS011;15328;50.860;10.562;2024-02-26T13:37:36;26.45;;;16.85;;
27999;SDS011;15328;50.860;10.562;2024-02-26T13:42:38;27.10;;;17.15;;
27999;SDS011;15328;50.860;10.562;2024-02-26T13:47:39;27.80;;;17.15;;
27999;SDS011;15328;50.860;10.562;2024-02-26T13:52:40;27.73;;;17.45;;
27999;SDS011;15328;50.860;10.562;2024-02-26T13:57:40;26.97;;;16.43;;
27999;SDS011;15328;50.860;10.562;2024-02-26T14:02:41;34.47;;;19.83;;
27999;SDS011;15328;50.860;10.562;2024-02-26T14:07:41;31.93;;;19.23;;
27999;SDS011;15328;50.860;10.562;2024-02-26T14:12:41;24.90;;;17.02;;
27999;SDS011;15328;50.860;10.562;2024-02-26T14:17:42;27.55;;;17.30;;
27999;SDS011;15328;50.860;10.562;2024-02-26T14:22:43;29.30;;;17.58;;
27999;SDS011;15328;50.860;10.562;2024-02-26T14:27:43;25.42;;;15.73;;
27999;SDS011;15328;50.860;10.562;2024-02-26T14:32:44;22.75;;;14.15;;
27999;SDS011;15328;50.860;10.562;2024-02-26T14:37:44;26.55;;;16.63;;
27999;SDS011;15328;50.860;10.562;2024-02-26T14:42:49;24.83;;;15.13;;
27999;SDS011;15328;50.860;10.562;2024-02-26T14:47:49;26.30;;;16.98;;
27999;SDS011;15328;50.860;10.562;2024-02-26T14:52:49;27.67;;;17.77;;
27999;SDS011;15328;50.860;10.562;2024-02-26T14:57:50;29.38;;;17.65;;
27999;SDS011;15328;50.860;10.562;2024-02-26T15:02:50;27.73;;;17.58;;
27999;SDS011;15328;50.860;10.562;2024-02-26T15:07:52;29.05;;;18.40;;
27999;SDS011;15328;50.860;10.562;2024-02-26T15:12:52;26.43;;;16.53;;
27999;SDS011;15328;50.860;10.562;2024-02-26T15:17:55;29.02;;;18.00;;
27999;SDS011;15328;50.860;10.562;2024-02-26T15:22:55;29.15;;;19.23;;
27999;SDS011;15328;50.860;10.562;2024-02-26T15:27:55;28.60;;;17.25;;
27999;SDS011;15328;50.860;10.562;2024-02-26T15:32:55;32.13;;;19.85;;
27999;SDS011;15328;50.860;10.562;2024-02-26T15:37:56;26.90;;;18.25;;
27999;SDS011;15328;50.860;10.562;2024-02-26T15:42:57;28.02;;;17.08;;
27999;SDS011;15328;50.860;10.562;2024-02-26T15:47:58;29.77;;;19.07;;
27999;SDS011;15328;50.860;10.562;2024-02-26T15:52:58;32.33;;;20.00;;
27999;SDS011;15328;50.860;10.562;2024-02-26T15:57:59;32.05;;;19.27;;
27999;SDS011;15328;50.860;10.562;2024-02-26T16:02:59;27.35;;;17.42;;
27999;SDS011;15328;50.860;10.562;2024-02-26T16:08:00;28.07;;;17.30;;
27999;SDS011;15328;50.860;10.562;2024-02-26T16:13:06;30.17;;;18.80;;
27999;SDS011;15328;50.860;10.562;2024-02-26T16:18:08;30.80;;;17.58;;
27999;SDS011;15328;50.860;10.562;2024-02-26T16:23:08;27.67;;;15.80;;
27999;SDS011;15328;50.860;10.562;2024-02-26T16:28:09;36.35;;;19.25;;
27999;SDS011;15328;50.860;10.562;2024-02-26T16:33:09;34.57;;;19.17;;
27999;SDS011;15328;50.860;10.562;2024-02-26T16:38:09;36.13;;;21.27;;
27999;SDS011;15328;50.860;10.562;2024-02-26T16:43:10;33.77;;;18.23;;
27999;SDS011;15328;50.860;10.562;2024-02-26T16:48:10;32.38;;;18.15;;
27999;SDS011;15328;50.860;10.562;2024-02-26T16:53:10;28.53;;;17.50;;
27999;SDS011;15328;50.860;10.562;2024-02-26T16:58:11;34.37;;;19.80;;
27999;SDS011;15328;50.860;10.562;2024-02-26T17:03:11;34.77;;;18.60;;
27999;SDS011;15328;50.860;10.562;2024-02-26T17:08:11;30.75;;;18.88;;
27999;SDS011;15328;50.860;10.562;2024-02-26T17:13:12;28.42;;;17.40;;
27999;SDS011;15328;50.860;10.562;2024-02-26T17:18:13;29.05;;;17.10;;
27999;SDS011;15328;50.860;10.562;2024-02-26T17:23:16;25.57;;;15.77;;
27999;SDS011;15328;50.860;10.562;2024-02-26T17:28:16;28.63;;;17.33;;
27999;SDS011;15328;50.860;10.562;2024-02-26T17:33:18;35.38;;;19.85;;
27999;SDS011;15328;50.860;10.562;2024-02-26T17:38:18;36.30;;;21.77;;
27999;SDS011;15328;50.860;10.562;2024-02-26T17:43:19;49.07;;;27.50;;
27999;SDS011;15328;50.860;10.562;2024-02-26T17:48:19;41.80;;;25.42;;
27999;SDS011;15328;50.860;10.562;2024-02-26T17:53:20;38.72;;;23.45;;
27999;SDS011;15328;50.860;10.562;2024-02-26T17:58:22;37.17;;;22.45;;
27999;SDS011;15328;50.860;10.562;2024-02-26T18:03:22;32.20;;;19.58;;
27999;SDS011;15328;50.860;10.562;2024-02-26T18:08:23;30.77;;;19.30;;
27999;SDS011;15328;50.860;10.562;2024-02-26T18:13:23;24.90;;;15.55;;
27999;SDS011;15328;50.860;10.562;2024-02-26T18:18:27;24.50;;;16.05;;
27999;SDS011;15328;50.860;10.562;2024-02-26T18:23:29;24.35;;;14.50;;
27999;SDS011;15328;50.860;10.562;2024-02-26T18:28:29;23.52;;;15.30;;
27999;SDS011;15328;50.860;10.562;2024-02-26T18:33:30;22.20;;;13.93;;
27999;SDS011;15328;50.860;10.562;2024-02-26T18:38:30;23.33;;;13.75;;
27999;SDS011;15328;50.860;10.562;2024-02-26T18:43:31;18.73;;;12.32;;
27999;SDS011;15328;50.860;10.562;2024-02-26T18:48:32;17.45;;;11.85;;
27999;SDS011;15328;50.860;10.562;2024-02-26T18:53:32;18.27;;;12.25;;
27999;SDS011;15328;50.860;10.562;2024-02-26T18:58:33;16.88;;;11.85;;
27999;SDS011;15328;50.860;10.562;2024-02-26T19:03:33;19.00;;;12.27;;
27999;SDS011;15328;50.860;10.562;2024-02-26T19:08:34;15.35;;;10.73;;
27999;SDS011;15328;50.860;10.562;2024-02-26T19:13:36;14.98;;;10.35;;
27999;SDS011;15328;50.860;10.562;2024-02-26T19:18:39;14.38;;;9.95;;
27999;SDS011;15328;50.860;10.562;2024-02-26T19:23:39;18.33;;;12.15;;
27999;SDS011;15328;50.860;10.562;2024-02-26T19:28:40;13.70;;;9.65;;
27999;SDS011;15328;50.860;10.562;2024-02-26T19:33:44;40.28;;;24.90;;
27999;SDS011;15328;50.860;10.562;2024-02-26T19:38:46;22.50;;;14.38;;
27999;SDS011;15328;50.860;10.562;2024-02-26T19:43:47;19.05;;;11.98;;
27999;SDS011;15328;50.860;10.562;2024-02-26T19:48:47;19.00;;;12.33;;
27999;SDS011;15328;50.860;10.562;2024-02-26T19:53:49;18.80;;;12.50;;
27999;SDS011;15328;50.860;10.562;2024-02-26T19:58:49;19.20;;;12.38;;
27999;SDS011;15328;50.860;10.562;2024-02-26T20:03:50;18.05;;;12.35;;
27999;SDS011;15328;50.860;10.562;2024-02-26T20:08:50;17.83;;;12.00;;
27999;SDS011;15328;50.860;10.562;2024-02-26T20:13:51;19.27;;;13.27;;
27999;SDS011;15328;50.860;10.562;2024-02-26T20:18:51;19.80;;;12.30;;
27999;SDS011;15328;50.860;10.562;2024-02-26T20:23:51;17.48;;;11.93;;
27999;SDS011;15328;50.860;10.562;2024-02-26T20:28:51;22.13;;;15.15;;
27999;SDS011;15328;50.860;10.562;2024-02-26T20:33:52;20.23;;;14.13;;
27999;SDS011;15328;50.860;10.562;2024-02-26T20:38:52;20.90;;;13.95;;
27999;SDS011;15328;50.860;10.562;2024-02-26T20:43:53;27.50;;;18.25;;
27999;SDS011;15328;50.860;10.562;2024-02-26T20:48:53;27.25;;;17.77;;
27999;SDS011;15328;50.860;10.562;2024-02-26T20:53:54;25.70;;;17.05;;
27999;SDS011;15328;50.860;10.562;2024-02-26T20:58:56;24.75;;;15.80;;
27999;SDS011;15328;50.860;10.562;2024-02-26T21:03:56;25.90;;;17.55;;
27999;SDS011;15328;50.860;10.562;2024-02-26T21:08:56;22.80;;;15.88;;
27999;SDS011;15328;50.860;10.562;2024-02-26T21:13:57;22.80;;;14.43;;
27999;SDS011;15328;50.860;10.562;2024-02-26T21:18:57;23.70;;;16.13;;
27999;SDS011;15328;50.860;10.562;2024-02-26T21:23:59;23.80;;;15.85;;
27999;SDS011;15328;50.860;10.562;2024-02-26T21:29:00;27.45;;;17.23;;
27999;SDS011;15328;50.860;10.562;2024-02-26T21:34:00;22.20;;;15.27;;
27999;SDS011;15328;50.860;10.562;2024-02-26T21:39:00;25.83;;;16.48;;
27999;SDS011;15328;50.860;10.562;2024-02-26T21:44:01;24.42;;;16.15;;
27999;SDS011;15328;50.860;10.562;2024-02-26T21:49:06;22.48;;;15.43;;
27999;SDS011;15328;50.860;10.562;2024-02-26T21:54:07;24.20;;;15.80;;
27999;SDS011;15328;50.860;10.562;2024-02-26T21:59:07;24.98;;;14.68;;
27999;SDS011;15328;50.860;10.562;2024-02-26T22:04:09;27.90;;;18.23;;
27999;SDS011;15328;50.860;10.562;2024-02-26T22:09:09;29.45;;;17.02;;
27999;SDS011;15328;50.860;10.562;2024-02-26T22:14:11;26.25;;;16.10;;
27999;SDS011;15328;50.860;10.562;2024-02-26T22:19:11;22.60;;;14.88;;
27999;SDS011;15328;50.860;10.562;2024-02-26T22:24:16;24.17;;;15.07;;
27999;SDS011;15328;50.860;10.562;2024-02-26T22:29:16;21.97;;;13.87;;
27999;SDS011;15328;50.860;10.562;2024-02-26T22:34:17;21.80;;;13.13;;
27999;SDS011;15328;50.860;10.562;2024-02-26T22:39:17;19.97;;;13.37;;
27999;SDS011;15328;50.860;10.562;2024-02-26T22:44:18;20.20;;;13.23;;
27999;SDS011;15328;50.860;10.562;2024-02-26T22:49:19;18.95;;;12.50;;
27999;SDS011;15328;50.860;10.562;2024-02-26T22:54:19;23.05;;;14.32;;
27999;SDS011;15328;50.860;10.562;2024-02-26T22:59:19;19.27;;;13.20;;
27999;SDS011;15328;50.860;10.562;2024-02-26T23:04:20;18.75;;;11.98;;
27999;SDS011;15328;50.860;10.562;2024-02-26T23:09:22;18.20;;;11.80;;
27999;SDS011;15328;50.860;10.562;2024-02-26T23:14:23;18.02;;;11.20;;
27999;SDS011;15328;50.860;10.562;2024-02-26T23:19:23;15.53;;;11.20;;
27999;SDS011;15328;50.860;10.562;2024-02-26T23:24:23;19.43;;;12.13;;
27999;SDS011;15328;50.860;10.562;2024-02-26T23:29:24;18.20;;;11.68;;
27999;SDS011;15328;50.860;10.562;2024-02-26T23:34:24;18.95;;;11.88;;
27999;SDS011;15328;50.860;10.562;2024-02-26T23:39:26;19.77;;;12.38;;
27999;SDS011;15328;50.860;10.562;2024-02-26T23:44:26;19.25;;;13.05;;
27999;SDS011;15328;50.860;10.562;2024-02-26T23:49:27;20.45;;;12.75;;
27999;SDS011;15328;50.860;10.562;2024-02-26T23:54:27;17.27;;;12.02;;
27999;SDS011;15328;50.860;10.562;2024-02-26T23:59:27;15.43;;;10.80;;
